Time;durP1;ratioP1;P1;durP2;ratioP2;P2;SDS_P1;SDS_P2;PMS_P1;PMS_P2;Temp;Humidity;BMP_temperature;BMP_pressure;BME280_temperature;BME280_humidity;BME280_pressure;Samples;Min_cycle;Max_cycle;Signal;HPM_P1;HPM_P2
2022/07/25 00:02:19;;;;;;;12.50;4.60;;;;;;;16.44;53.95;99251.83;105957;1275;97988;-65
2022/07/25 00:04:48;;;;;;;9.40;4.00;;;;;;;16.42;53.93;99250.14;106070;1276;107906;-65
2022/07/25 00:07:16;;;;;;;10.50;4.40;;;;;;;16.38;54.02;99248.48;105983;1275;97873;-66
2022/07/25 00:09:44;;;;;;;10.50;4.30;;;;;;;16.35;54.14;99248.93;105976;1275;97803;-65
2022/07/25 00:12:13;;;;;;;12.10;4.40;;;;;;;16.31;54.18;99248.98;106008;1276;111483;-66
2022/07/25 00:14:41;;;;;;;9.60;4.30;;;;;;;16.29;54.21;99252.06;105980;1274;97953;-65
2022/07/25 00:17:10;;;;;;;10.50;4.00;;;;;;;16.26;54.30;99249.80;105937;1277;108183;-65
2022/07/25 00:19:38;;;;;;;11.70;4.60;;;;;;;16.23;54.33;99247.00;106008;1275;97971;-65
2022/07/25 00:22:06;;;;;;;13.60;4.70;;;;;;;16.20;54.55;99246.77;106003;1275;97895;-63
2022/07/25 00:24:34;;;;;;;11.20;4.50;;;;;;;16.14;54.57;99246.92;106028;1275;112409;-65
2022/07/25 00:27:02;;;;;;;13.60;4.50;;;;;;;16.12;54.55;99245.86;105961;1275;97697;-64
2022/07/25 00:29:30;;;;;;;12.10;4.40;;;;;;;16.10;54.68;99248.21;105944;1274;108441;-63
2022/07/25 00:31:58;;;;;;;10.50;4.40;;;;;;;16.07;54.80;99241.90;105982;1274;97979;-64
2022/07/25 00:34:26;;;;;;;14.60;4.20;;;;;;;16.03;54.70;99246.48;105923;1274;95305;-63
2022/07/25 00:36:54;;;;;;;8.00;4.30;;;;;;;16.01;54.84;99245.42;105972;1274;111981;-62
2022/07/25 00:39:22;;;;;;;14.70;5.00;;;;;;;15.97;54.90;99246.35;105962;1275;97911;-64
2022/07/25 00:41:51;;;;;;;12.30;5.00;;;;;;;15.96;55.09;99248.81;105977;1274;108339;-65
2022/07/25 00:44:28;;;;;;;11.80;4.40;;;;;;;15.93;55.11;99245.98;106003;1274;97895;-64
2022/07/25 00:46:57;;;;;;;8.10;4.00;;;;;;;15.91;55.32;99247.82;106010;1275;97851;-64
2022/07/25 00:49:26;;;;;;;8.40;4.00;;;;;;;15.89;55.35;99250.00;106014;1275;111352;-66
2022/07/25 00:51:54;;;;;;;11.90;4.60;;;;;;;15.86;55.38;99250.95;105988;1275;97788;-65
2022/07/25 00:54:22;;;;;;;10.30;4.70;;;;;;;15.83;55.38;99249.38;105961;1277;108840;-65
2022/07/25 00:56:51;;;;;;;10.40;5.00;;;;;;;15.80;55.45;99245.20;105953;1275;98608;-65
2022/07/25 00:59:18;;;;;;;10.40;4.50;;;;;;;15.77;55.51;99247.29;105979;1275;97870;-65
2022/07/25 01:01:47;;;;;;;10.10;4.30;;;;;;;15.73;55.64;99245.45;105990;1274;112441;-65
2022/07/25 01:04:16;;;;;;;11.90;4.30;;;;;;;15.70;55.73;99246.80;105994;1274;97871;-64
2022/07/25 01:06:45;;;;;;;10.90;4.60;;;;;;;15.67;55.75;99243.39;105969;1274;108505;-65
2022/07/25 01:09:13;;;;;;;9.80;4.80;;;;;;;15.63;55.82;99242.63;105958;1275;97875;-64
2022/07/25 01:11:41;;;;;;;13.20;5.40;;;;;;;15.58;55.86;99243.77;106002;1275;97823;-64
2022/07/25 01:14:09;;;;;;;8.40;4.70;;;;;;;15.53;55.89;99242.13;105971;1277;114358;-64
2022/07/25 01:16:37;;;;;;;8.90;4.40;;;;;;;15.50;56.03;99241.65;105953;1274;96981;-64
2022/07/25 01:19:05;;;;;;;8.50;4.30;;;;;;;15.48;56.07;99241.09;105982;1274;107222;-64
2022/07/25 01:21:39;;;;;;;10.30;4.20;;;;;;;15.46;56.19;99245.58;105969;1274;95316;-65
2022/07/25 01:24:08;;;;;;;11.40;4.20;;;;;;;15.43;56.22;99243.70;106047;1274;97883;-66
2022/07/25 01:26:37;;;;;;;8.30;4.30;;;;;;;15.41;56.32;99246.75;106034;1275;111336;-64
2022/07/25 01:29:05;;;;;;;11.40;4.30;;;;;;;15.38;56.32;99243.98;106017;1275;95285;-63
2022/07/25 01:31:33;;;;;;;13.00;5.00;;;;;;;15.35;56.37;99240.46;106023;1275;108341;-63
2022/07/25 01:34:02;;;;;;;11.00;4.70;;;;;;;15.32;56.48;99241.29;106052;1275;97968;-65
2022/07/25 01:36:30;;;;;;;14.00;5.30;;;;;;;15.29;56.54;99241.16;106062;1275;97950;-63
2022/07/25 01:38:59;;;;;;;9.50;4.40;;;;;;;15.28;56.62;99242.05;106025;1275;112093;-65
2022/07/25 01:41:27;;;;;;;10.80;4.40;;;;;;;15.27;56.67;99242.48;106037;1276;97974;-64
2022/07/25 01:43:55;;;;;;;10.10;4.30;;;;;;;15.24;56.70;99242.02;106006;1274;106609;-64
2022/07/25 01:46:23;;;;;;;11.50;5.20;;;;;;;15.22;56.74;99241.33;105952;1274;97870;-63
2022/07/25 01:48:52;;;;;;;12.10;5.00;;;;;;;15.14;56.73;99244.66;105966;1277;95426;-64
2022/07/25 01:51:20;;;;;;;11.50;5.60;;;;;;;15.10;56.92;99242.86;105950;1274;111982;-65
2022/07/25 01:53:48;;;;;;;10.10;4.60;;;;;;;15.10;57.00;99240.96;105963;1276;97987;-66
2022/07/25 01:56:17;;;;;;;11.60;5.10;;;;;;;15.09;57.10;99236.57;105903;1275;108333;-64
2022/07/25 01:58:49;;;;;;;14.60;5.60;;;;;;;15.05;56.86;99230.25;105959;1276;97901;-67
2022/07/25 02:01:17;;;;;;;12.20;5.20;;;;;;;14.93;56.88;99230.04;106093;1277;97960;-65
2022/07/25 02:03:48;;;;;;;11.30;4.70;;;;;;;14.89;57.28;99229.88;106089;1274;114144;-65
2022/07/25 02:06:18;;;;;;;11.70;4.80;;;;;;;14.90;57.45;99231.58;106043;1277;98580;-65
2022/07/25 02:08:46;;;;;;;10.00;4.80;;;;;;;14.91;57.54;99229.16;106112;1275;107822;-67
2022/07/25 02:11:14;;;;;;;12.10;5.20;;;;;;;14.93;57.56;99232.04;106119;1274;97950;-64
2022/07/25 02:13:43;;;;;;;10.70;5.20;;;;;;;14.91;57.59;99227.21;106144;1274;97904;-65
2022/07/25 02:16:12;;;;;;;8.30;4.50;;;;;;;14.89;57.67;99227.40;106115;1275;112310;-63
2022/07/25 02:18:40;;;;;;;15.30;5.00;;;;;;;14.88;57.70;99228.52;106107;1274;95239;-65
2022/07/25 02:21:09;;;;;;;12.10;4.60;;;;;;;14.89;57.71;99230.61;106109;1275;108284;-64
2022/07/25 02:23:42;;;;;;;12.10;5.20;;;;;;;14.86;57.56;99226.58;106060;1274;98411;-65
2022/07/25 02:26:12;;;;;;;13.80;5.60;;;;;;;14.74;57.31;99226.73;106116;1274;98027;-65
2022/07/25 02:28:40;;;;;;;14.10;5.50;;;;;;;14.59;57.16;99231.25;106134;1274;111350;-67
2022/07/25 02:31:08;;;;;;;16.30;6.10;;;;;;;14.41;57.23;99223.84;106152;1275;97979;-69
2022/07/25 02:33:36;;;;;;;11.00;5.80;;;;;;;14.27;57.55;99232.49;106033;1274;106535;-67
2022/07/25 02:36:06;;;;;;;12.60;5.80;;;;;;;14.19;57.83;99229.28;106092;1274;95282;-64
2022/07/25 02:38:34;;;;;;;11.50;4.80;;;;;;;14.17;58.20;99227.73;106053;1274;98584;-64
2022/07/25 02:41:03;;;;;;;8.70;4.90;;;;;;;14.19;58.39;99226.42;106069;1274;111319;-65
2022/07/25 02:43:33;;;;;;;11.70;5.10;;;;;;;14.22;58.50;99224.75;106103;1274;97847;-64
2022/07/25 02:46:02;;;;;;;11.50;4.70;;;;;;;14.25;58.50;99231.08;106011;1274;108373;-64
2022/07/25 02:48:30;;;;;;;10.50;4.10;;;;;;;14.28;58.57;99232.77;106040;1274;98008;-64
2022/07/25 02:50:58;;;;;;;12.00;4.90;;;;;;;14.30;58.68;99229.63;106061;1274;95175;-66
2022/07/25 02:53:26;;;;;;;8.80;4.50;;;;;;;14.30;58.61;99231.35;106098;1275;111374;-64
2022/07/25 02:56:14;;;;;;;12.40;4.90;;;;;;;14.30;58.86;99235.66;106067;1274;97957;-63
2022/07/25 02:58:43;;;;;;;10.90;5.10;;;;;;;14.30;58.83;99229.93;106057;1274;108383;-66
2022/07/25 03:01:12;;;;;;;10.70;4.80;;;;;;;14.29;58.82;99227.54;106103;1274;97969;-66
2022/07/25 03:03:40;;;;;;;10.30;4.70;;;;;;;14.26;58.92;99226.35;106047;1274;97880;-64
2022/07/25 03:06:08;;;;;;;9.20;4.80;;;;;;;14.26;59.06;99227.98;106068;1274;112027;-65
2022/07/25 03:08:36;;;;;;;10.70;4.70;;;;;;;14.28;59.18;99225.27;106098;1274;97906;-68
2022/07/25 03:11:03;;;;;;;10.00;4.60;;;;;;;14.31;59.17;99232.35;106098;1274;108126;-64
2022/07/25 03:13:32;;;;;;;11.70;4.50;;;;;;;14.33;59.16;99235.79;106049;1274;97950;-64
2022/07/25 03:16:00;;;;;;;9.10;4.20;;;;;;;14.34;59.24;99233.74;106094;1274;97953;-63
2022/07/25 03:18:28;;;;;;;9.20;4.50;;;;;;;14.34;59.22;99229.63;106083;1277;112400;-64
2022/07/25 03:20:56;;;;;;;12.80;5.50;;;;;;;14.32;59.17;99227.51;106092;1274;95209;-63
2022/07/25 03:23:25;;;;;;;14.00;5.90;;;;;;;14.26;59.08;99226.04;106050;1274;108430;-65
2022/07/25 03:25:55;;;;;;;12.20;5.80;;;;;;;14.22;59.37;99228.13;105971;1274;97666;-64
2022/07/25 03:28:24;;;;;;;12.70;5.80;;;;;;;14.23;59.52;99230.33;106082;1274;95210;-63
2022/07/25 03:30:52;;;;;;;14.20;6.00;;;;;;;14.22;59.41;99230.40;106002;1275;111996;-64
2022/07/25 03:33:20;;;;;;;12.90;5.90;;;;;;;14.20;59.65;99230.64;105980;1274;95246;-62
2022/07/25 03:35:47;;;;;;;11.50;5.40;;;;;;;14.23;59.77;99230.41;105970;1274;108081;-64
2022/07/25 03:38:16;;;;;;;13.30;5.90;;;;;;;14.27;59.88;99233.91;105993;1274;95209;-64
2022/07/25 03:40:44;;;;;;;11.20;5.70;;;;;;;14.31;59.90;99232.00;106019;1275;97761;-64
2022/07/25 03:43:12;;;;;;;12.60;5.50;;;;;;;14.35;59.96;99224.54;106011;1274;110964;-65
2022/07/25 03:45:41;;;;;;;13.40;4.90;;;;;;;14.39;59.99;99225.66;106031;1274;97875;-64
2022/07/25 03:48:09;;;;;;;9.50;4.70;;;;;;;14.41;60.08;99222.94;105559;1274;457126;-65
2022/07/25 03:50:37;;;;;;;12.30;5.80;;;;;;;14.44;60.11;99220.03;105885;1277;97844;-64
2022/07/25 03:53:05;;;;;;;13.50;5.50;;;;;;;14.45;60.20;99221.33;105966;1274;97861;-64
2022/07/25 03:55:38;;;;;;;11.30;5.20;;;;;;;14.49;60.17;99220.48;105923;1274;111659;-64
2022/07/25 03:58:06;;;;;;;11.20;4.80;;;;;;;14.52;60.28;99219.35;105978;1278;97104;-65
2022/07/25 04:00:34;;;;;;;11.30;4.80;;;;;;;14.54;60.28;99221.14;105962;1274;108427;-61
2022/07/25 04:03:02;;;;;;;11.20;4.60;;;;;;;14.56;60.36;99224.90;105953;1274;98067;-64
2022/07/25 04:05:30;;;;;;;11.70;5.30;;;;;;;14.59;60.38;99227.48;105990;1274;97905;-64
2022/07/25 04:07:58;;;;;;;9.00;4.80;;;;;;;14.62;60.48;99223.52;105990;1274;112152;-65
2022/07/25 04:10:26;;;;;;;11.60;5.10;;;;;;;14.65;60.51;99221.83;106026;1274;96278;-67
2022/07/25 04:12:54;;;;;;;11.40;5.40;;;;;;;14.68;60.47;99217.80;105879;1274;108279;-64
2022/07/25 04:15:22;;;;;;;11.10;5.20;;;;;;;14.69;60.39;99211.80;105853;1274;96982;-64
2022/07/25 04:17:49;;;;;;;12.00;5.50;;;;;;;14.68;60.52;99210.29;105844;1274;98557;-62
2022/07/25 04:20:19;;;;;;;14.10;6.20;;;;;;;14.70;60.50;99213.33;107853;1274;111549;-64
2022/07/25 04:22:47;;;;;;;16.70;6.30;;;;;;;14.73;60.73;99219.29;106310;1274;97902;-64
2022/07/25 04:25:16;;;;;;;13.80;6.30;;;;;;;14.78;60.73;99214.14;105779;1274;108385;-64
2022/07/25 04:27:44;;;;;;;11.70;5.90;;;;;;;14.82;60.79;99218.70;106786;1274;97973;-63
2022/07/25 04:30:12;;;;;;;14.10;6.00;;;;;;;14.86;60.73;99223.34;105916;1275;97888;-64
2022/07/25 04:32:51;;;;;;;13.20;5.30;;;;;;;14.91;60.85;99226.00;105904;1278;112014;-63
2022/07/25 04:35:20;;;;;;;11.00;5.90;;;;;;;14.95;61.03;99224.02;106061;1274;95243;-63
2022/07/25 04:37:48;;;;;;;13.30;5.70;;;;;;;14.99;61.10;99224.53;105975;1274;108416;-63
2022/07/25 04:40:16;;;;;;;10.00;5.20;;;;;;;15.05;61.15;99222.24;105984;1274;97880;-64
2022/07/25 04:42:44;;;;;;;12.90;5.40;;;;;;;15.10;61.22;99218.02;105991;1274;97937;-64
2022/07/25 04:45:13;;;;;;;13.50;6.00;;;;;;;15.16;61.19;99212.14;106015;1274;112011;-63
2022/07/25 04:47:44;;;;;;;13.30;5.80;;;;;;;15.22;61.14;99209.70;106064;1274;95296;-63
2022/07/25 04:50:13;;;;;;;11.00;5.80;;;;;;;15.27;61.15;99204.61;105968;1274;107524;-63
2022/07/25 04:52:42;;;;;;;13.30;5.90;;;;;;;15.32;61.34;99205.56;106030;1274;97874;-63
2022/07/25 04:55:10;;;;;;;13.60;5.70;;;;;;;15.37;61.38;99206.36;106027;1274;96594;-64
2022/07/25 04:57:38;;;;;;;13.80;5.70;;;;;;;15.43;61.45;99206.21;105957;1274;112104;-67
2022/07/25 05:00:09;;;;;;;13.00;6.10;;;;;;;15.49;61.54;99210.84;105985;1274;98462;-69
2022/07/25 05:02:38;;;;;;;12.60;5.80;;;;;;;15.56;61.61;99204.80;105985;1274;107570;-69
2022/07/25 05:05:08;;;;;;;12.00;5.90;;;;;;;15.64;61.73;99203.78;106061;1274;97975;-70
2022/07/25 05:07:50;;;;;;;13.10;5.80;;;;;;;15.73;61.69;99199.73;106092;1274;97984;-67
2022/07/25 05:10:17;;;;;;;14.10;5.60;;;;;;;15.82;61.81;99201.61;106120;1274;111178;-67
2022/07/25 05:12:45;;;;;;;11.80;5.40;;;;;;;15.91;61.95;99195.99;106112;1274;97866;-65
2022/07/25 05:15:14;;;;;;;11.90;5.40;;;;;;;16.00;61.93;99195.52;106073;1276;108326;-65
2022/07/25 05:17:42;;;;;;;11.90;5.40;;;;;;;16.08;61.99;99197.10;105981;1274;97853;-64
2022/07/25 05:20:12;;;;;;;13.50;5.70;;;;;;;16.17;61.94;99200.15;105987;1274;97843;-67
2022/07/25 05:22:42;;;;;;;15.80;5.40;;;;;;;16.26;62.25;99199.21;105971;1274;111445;-66
2022/07/25 05:25:11;;;;;;;9.30;4.80;;;;;;;16.34;62.25;99193.72;105943;1274;97104;-67
2022/07/25 05:27:40;;;;;;;10.00;4.90;;;;;;;16.43;62.14;99193.48;105998;1274;107690;-68
2022/07/25 05:30:10;;;;;;;11.20;5.20;;;;;;;16.50;62.20;99180.19;105946;1274;95314;-68
2022/07/25 05:32:39;;;;;;;18.10;5.60;;;;;;;16.59;62.18;99177.94;105978;1274;97873;-69
2022/07/25 05:35:09;;;;;;;12.90;4.80;;;;;;;16.68;62.29;99177.63;105938;1274;111778;-68
2022/07/25 05:37:37;;;;;;;11.00;4.80;;;;;;;16.76;62.45;99173.23;105980;1274;99079;-69
2022/07/25 05:40:07;;;;;;;9.10;4.30;;;;;;;16.87;62.26;99175.30;105924;1275;107687;-70
2022/07/25 05:42:35;;;;;;;8.00;4.70;;;;;;;16.96;62.40;99172.30;105983;1274;97919;-73
2022/07/25 05:45:03;;;;;;;8.10;4.40;;;;;;;17.04;62.45;99168.61;105953;1275;98004;-69
2022/07/25 05:47:31;;;;;;;10.60;4.60;;;;;;;17.14;62.24;99171.05;105952;1274;112020;-68
2022/07/25 05:50:01;;;;;;;10.50;4.40;;;;;;;17.25;62.30;99175.92;105969;1274;96605;-68
2022/07/25 05:52:29;;;;;;;10.80;4.40;;;;;;;17.33;62.34;99171.68;105940;1274;108601;-66
2022/07/25 05:54:58;;;;;;;10.40;4.80;;;;;;;17.43;62.49;99174.88;105938;1275;97947;-67
2022/07/25 05:57:26;;;;;;;11.10;4.90;;;;;;;17.52;62.49;99175.41;105958;1274;97928;-63
2022/07/25 05:59:54;;;;;;;10.70;5.30;;;;;;;17.60;62.40;99173.23;106047;1274;112040;-69
2022/07/25 06:02:22;;;;;;;11.20;5.10;;;;;;;17.66;62.43;99175.78;106102;1274;97967;-67
2022/07/25 06:04:50;;;;;;;13.90;5.80;;;;;;;17.73;62.38;99174.02;106031;1274;108602;-69
2022/07/25 06:07:18;;;;;;;11.30;5.60;;;;;;;17.80;62.37;99175.41;106048;1274;97985;-69
2022/07/25 06:09:46;;;;;;;11.40;5.20;;;;;;;17.87;62.43;99178.17;106131;1274;97874;-65
2022/07/25 06:12:14;;;;;;;9.20;4.80;;;;;;;17.94;62.45;99178.30;106062;1274;111068;-68
2022/07/25 06:14:42;;;;;;;11.90;5.40;;;;;;;18.03;62.42;99178.77;106114;1274;96188;-67
2022/07/25 06:17:10;;;;;;;11.30;5.40;;;;;;;18.10;62.04;99183.04;106081;1274;107810;-70
2022/07/25 06:19:38;;;;;;;10.70;5.10;;;;;;;18.22;62.23;99184.23;106083;1274;97005;-70
2022/07/25 06:22:08;;;;;;;10.50;5.10;;;;;;;18.36;62.02;99182.20;106130;1274;97005;-70
2022/07/25 06:24:36;;;;;;;10.60;4.80;;;;;;;18.45;62.22;99181.30;106097;1274;112660;-67
2022/07/25 06:27:06;;;;;;;11.80;4.90;;;;;;;18.52;62.27;99181.25;106026;1277;97950;-69
2022/07/25 06:29:36;;;;;;;9.80;5.20;;;;;;;18.60;62.30;99180.23;105962;1274;106053;-68
2022/07/25 06:32:05;;;;;;;9.40;5.20;;;;;;;18.68;62.16;99179.94;106037;1276;97965;-69
2022/07/25 06:34:34;;;;;;;9.70;4.80;;;;;;;18.76;62.36;99183.09;106092;1274;98236;-69
2022/07/25 06:37:03;;;;;;;8.30;5.00;;;;;;;18.84;62.10;99182.77;106038;1274;110977;-67
2022/07/25 06:39:31;;;;;;;9.20;5.00;;;;;;;18.92;62.17;99183.47;105941;1277;97888;-67
2022/07/25 06:42:00;;;;;;;10.90;5.60;;;;;;;19.01;62.02;99180.66;105970;1274;108494;-65
2022/07/25 06:44:33;;;;;;;9.20;4.60;;;;;;;19.09;61.93;99175.50;106073;1274;95227;-76
2022/07/25 06:47:02;;;;;;;11.60;5.50;;;;;;;19.17;62.02;99171.80;106147;1276;98010;-65
2022/07/25 06:49:30;;;;;;;21.30;7.20;;;;;;;19.23;62.07;99169.40;106126;1276;111324;-67
2022/07/25 06:51:58;;;;;;;12.50;7.00;;;;;;;19.30;62.12;99168.64;106071;1274;98465;-67
2022/07/25 06:54:26;;;;;;;13.30;6.50;;;;;;;19.37;62.00;99170.94;105976;1274;108091;-65
2022/07/25 06:56:57;;;;;;;14.20;6.50;;;;;;;19.45;62.23;99169.13;105985;1274;96948;-66
2022/07/25 06:59:25;;;;;;;12.40;6.10;;;;;;;19.53;61.99;99166.38;105967;1274;97877;-66
2022/07/25 07:01:53;;;;;;;12.20;6.00;;;;;;;19.58;61.97;99159.16;105966;1274;111049;-67
2022/07/25 07:04:21;;;;;;;10.10;5.50;;;;;;;19.65;61.98;99158.39;105940;1276;97890;-66
2022/07/25 07:06:50;;;;;;;11.60;5.80;;;;;;;19.73;61.81;99162.58;105929;1277;108337;-65
2022/07/25 07:09:18;;;;;;;12.40;6.00;;;;;;;20.06;61.35;99158.23;106031;1274;97895;-66
2022/07/25 07:11:45;;;;;;;10.00;5.30;;;;;;;21.30;60.21;99145.67;105969;1274;97996;-66
2022/07/25 07:14:14;;;;;;;12.00;4.80;;;;;;;22.62;59.81;99144.91;105960;1274;111991;-72
2022/07/25 07:16:42;;;;;;;9.80;5.00;;;;;;;24.00;59.72;99142.00;106023;1274;97898;-72
2022/07/25 07:19:10;;;;;;;12.10;4.50;;;;;;;25.38;59.54;99139.30;106138;1276;108715;-71
2022/07/25 07:21:38;;;;;;;9.20;4.10;;;;;;;26.74;59.31;99136.48;106097;1274;95971;-71
2022/07/25 07:24:07;;;;;;;9.90;4.30;;;;;;;28.00;59.27;99133.25;106007;1274;95217;-70
2022/07/25 07:26:52;;;;;;;8.10;4.20;;;;;;;29.41;58.85;99129.26;105995;1274;111456;-71
2022/07/25 07:29:20;;;;;;;9.60;4.00;;;;;;;30.53;58.21;99127.17;106029;1274;98413;-72
2022/07/25 07:31:49;;;;;;;9.90;3.60;;;;;;;31.57;57.89;99132.06;106043;1274;107700;-72
2022/07/25 07:34:17;;;;;;;10.30;4.30;;;;;;;32.48;57.61;99133.32;106094;1274;95221;-70
2022/07/25 07:36:44;;;;;;;10.80;4.10;;;;;;;33.34;57.36;99132.95;106081;1274;98072;-70
2022/07/25 07:39:12;;;;;;;7.10;3.90;;;;;;;34.15;56.68;99130.48;106051;1274;111181;-70
2022/07/25 07:41:41;;;;;;;8.10;3.40;;;;;;;34.96;56.60;99128.02;105990;1274;98444;-71
2022/07/25 07:44:10;;;;;;;12.90;3.80;;;;;;;35.80;56.34;99133.27;106012;1274;107884;-69
2022/07/25 07:46:39;;;;;;;7.60;3.70;;;;;;;36.44;55.45;99130.02;105994;1274;95366;-70
2022/07/25 07:49:07;;;;;;;7.30;3.70;;;;;;;37.04;54.45;99125.76;106061;1274;97915;-70
2022/07/25 07:51:36;;;;;;;10.30;3.90;;;;;;;37.54;54.41;99128.64;105991;1274;110308;-70
2022/07/25 07:56:50;;;;;;;5.60;3.40;;;;;;;38.34;52.42;99122.80;105995;1274;107658;-76
2022/07/25 07:59:18;;;;;;;17.90;4.90;;;;;;;38.76;51.93;99123.38;106080;1274;97899;-72
2022/07/25 08:01:46;;;;;;;7.00;3.70;;;;;;;39.29;51.33;99123.84;106031;1274;97887;-73
2022/07/25 08:04:14;;;;;;;6.60;3.60;;;;;;;39.76;50.57;99123.48;106044;1274;111372;-72
2022/07/25 08:06:42;;;;;;;10.30;3.50;;;;;;;40.23;49.59;99123.97;106058;1274;98363;-75
2022/07/25 08:09:10;;;;;;;9.70;3.20;;;;;;;40.60;48.69;99123.15;106028;1274;106358;-72
2022/07/25 08:11:38;;;;;;;5.90;3.30;;;;;;;40.82;48.10;99120.07;106120;1274;96583;-72
2022/07/25 08:14:06;;;;;;;6.70;3.20;;;;;;;40.84;47.30;99118.46;106104;1274;97907;-71
2022/07/25 08:16:34;;;;;;;7.70;3.20;;;;;;;40.93;46.89;99116.55;106130;1274;111397;-71
2022/07/25 08:19:02;;;;;;;10.40;3.50;;;;;;;41.07;46.05;99115.45;106067;1274;98346;-71
2022/07/25 08:21:30;;;;;;;6.10;3.20;;;;;;;41.41;45.48;99112.66;106014;1274;107697;-70
2022/07/25 08:23:58;;;;;;;6.20;3.40;;;;;;;41.39;44.61;99110.81;106043;1274;95238;-69
2022/07/25 08:26:26;;;;;;;8.10;3.40;;;;;;;41.25;43.79;99107.02;105999;1274;97877;-64
2022/07/25 08:28:55;;;;;;;8.20;3.60;;;;;;;41.30;43.23;99102.61;106008;1274;112321;-63
2022/07/25 08:31:43;;;;;;;4.70;3.10;;;;;;;41.52;42.81;99106.48;105996;1274;95686;-64
2022/07/25 08:34:12;;;;;;;6.60;2.90;;;;;;;41.42;41.54;99105.39;105966;1276;108324;-64
2022/07/25 08:36:40;;;;;;;3.90;2.70;;;;;;;41.17;41.11;99104.13;106020;1274;97989;-65
2022/07/25 08:39:09;;;;;;;5.90;3.10;;;;;;;40.99;40.59;99102.12;106010;1274;95297;-64
2022/07/25 08:41:40;;;;;;;6.80;2.80;;;;;;;41.24;40.35;99097.10;105975;1275;110896;-64
2022/07/25 08:44:09;;;;;;;6.10;2.90;;;;;;;41.55;39.71;99085.59;105993;1274;97984;-62
2022/07/25 08:46:40;;;;;;;5.60;2.80;;;;;;;41.67;38.86;99091.02;106140;1274;107783;-64
2022/07/25 08:49:09;;;;;;;5.60;2.90;;;;;;;41.64;38.23;99095.15;106112;1274;95301;-64
2022/07/25 08:51:38;;;;;;;8.20;2.90;;;;;;;41.48;37.81;99095.97;106003;1274;97974;-66
2022/07/25 08:54:08;;;;;;;5.80;2.90;;;;;;;41.60;37.52;99089.77;105980;1274;111401;-62
2022/07/25 08:56:36;;;;;;;7.80;2.90;;;;;;;41.74;37.00;99086.61;105989;1276;96286;-64
2022/07/25 08:59:05;;;;;;;4.80;3.00;;;;;;;41.74;36.60;99086.11;105989;1274;108823;-63
2022/07/25 09:01:33;;;;;;;5.00;2.90;;;;;;;41.88;36.33;99082.21;105965;1274;95320;-64
2022/07/25 09:04:03;;;;;;;6.00;2.80;;;;;;;42.20;35.81;99084.27;106022;1274;97960;-64
2022/07/25 09:06:31;;;;;;;6.60;2.90;;;;;;;42.35;35.37;99077.10;105999;1274;111355;-70
2022/07/25 09:09:04;;;;;;;7.70;3.00;;;;;;;42.12;34.53;99079.57;106133;1274;97924;-70
2022/07/25 09:11:36;;;;;;;6.60;3.10;;;;;;;41.76;34.45;99079.87;106088;1274;108497;-68
2022/07/25 09:14:08;;;;;;;7.40;3.00;;;;;;;41.60;34.10;99081.66;106000;1274;95331;-70
2022/07/25 09:16:44;;;;;;;6.50;2.90;;;;;;;41.84;33.78;99074.56;105988;1274;97938;-69
2022/07/25 09:19:19;;;;;;;5.40;3.00;;;;;;;42.01;33.21;99072.77;105989;1274;112074;-66
2022/07/25 09:22:04;;;;;;;5.50;3.10;;;;;;;42.04;33.05;99077.98;105955;1274;95710;-67
2022/07/25 09:24:34;;;;;;;10.10;3.20;;;;;;;42.14;32.39;99071.60;105867;1275;107735;-69
2022/07/25 09:27:09;;;;;;;8.40;3.30;;;;;;;42.02;32.20;99066.63;105979;1274;95323;-70
2022/07/25 09:29:44;;;;;;;5.80;3.00;;;;;;;42.10;31.79;99059.42;105982;1274;96145;-72
2022/07/25 09:32:18;;;;;;;8.90;3.30;;;;;;;42.32;31.51;99059.69;106003;1274;111249;-69
2022/07/25 09:34:48;;;;;;;5.20;2.50;;;;;;;42.19;30.93;99064.09;105946;1274;98047;-70
2022/07/25 09:37:19;;;;;;;5.70;3.00;;;;;;;41.78;30.77;99067.73;106017;1274;106078;-69
2022/07/25 09:39:50;;;;;;;6.30;2.90;;;;;;;41.88;30.55;99063.12;105927;1274;98025;-68
2022/07/25 09:42:22;;;;;;;8.00;3.00;;;;;;;42.04;30.29;99057.13;105922;1276;97987;-69
2022/07/25 09:44:57;;;;;;;5.90;2.80;;;;;;;42.04;30.00;99058.67;106072;1274;112076;-69
2022/07/25 09:47:26;;;;;;;7.70;3.10;;;;;;;42.04;29.71;99060.41;105992;1274;98466;-70
2022/07/25 09:49:56;;;;;;;9.70;3.10;;;;;;;41.99;29.48;99057.70;105930;1274;108168;-68
2022/07/25 09:52:24;;;;;;;9.00;3.30;;;;;;;41.64;29.10;99060.40;105980;1274;97868;-67
2022/07/25 09:54:53;;;;;;;7.00;3.30;;;;;;;41.53;28.95;99060.52;106065;1274;97956;-69
2022/07/25 09:57:24;;;;;;;8.30;3.30;;;;;;;41.59;28.75;99056.36;105972;1274;111855;-70
2022/07/25 09:59:53;;;;;;;;;;;;;;;41.40;28.40;99048.15;106010;1274;97937;-70
2022/07/25 10:02:45;;;;;;;14.30;3.40;;;;;;;41.26;28.52;99049.14;105939;1274;107789;-70
2022/07/25 10:05:22;;;;;;;7.90;3.30;;;;;;;41.34;28.20;99039.05;106010;1274;97960;-70
2022/07/25 10:07:53;;;;;;;6.40;3.40;;;;;;;40.90;27.72;99040.69;106058;1274;97975;-70
2022/07/25 10:10:23;;;;;;;8.00;3.40;;;;;;;40.27;27.70;99037.56;106054;1274;111488;-69
2022/07/25 10:13:14;;;;;;;7.50;3.80;;;;;;;39.72;27.38;99031.69;105998;1274;97941;-68
2022/07/25 10:15:52;;;;;;;8.40;3.70;;;;;;;39.15;27.42;99027.35;105940;1274;109296;-69
2022/07/25 10:18:23;;;;;;;9.60;4.10;;;;;;;38.66;26.96;99023.02;105818;1276;95302;-69
2022/07/25 10:20:56;;;;;;;6.10;3.50;;;;;;;38.17;27.08;99027.80;105970;1274;96369;-69
2022/07/25 10:23:26;;;;;;;6.30;2.90;;;;;;;37.65;26.93;99024.40;106038;1274;112178;-73
2022/07/25 10:26:18;;;;;;;9.30;3.50;;;;;;;37.17;26.81;99026.18;106004;1274;98163;-69
2022/07/25 10:28:49;;;;;;;6.90;3.40;;;;;;;36.56;26.80;99023.63;105927;1274;107571;-66
2022/07/25 10:31:30;;;;;;;11.90;4.00;;;;;;;35.95;26.56;99022.02;105991;1274;97886;-66
2022/07/25 10:34:01;;;;;;;7.80;3.70;;;;;;;35.40;26.61;99019.27;105954;1274;97948;-68
2022/07/25 10:36:49;;;;;;;7.00;3.50;;;;;;;34.90;26.28;99015.86;105928;1274;111997;-67
2022/07/25 10:39:20;;;;;;;8.60;3.90;;;;;;;34.29;26.39;99013.28;105971;1274;98411;-66
2022/07/25 10:41:59;;;;;;;8.20;3.70;;;;;;;33.94;26.70;99012.30;105931;1274;107799;-67
2022/07/25 10:44:43;;;;;;;4.70;3.30;;;;;;;33.52;26.33;99008.14;105936;1274;95301;-66
2022/07/25 10:47:13;;;;;;;7.30;3.50;;;;;;;33.11;26.58;99003.17;105901;1274;96577;-65
2022/07/25 10:49:44;;;;;;;10.50;3.70;;;;;;;32.79;26.81;99000.92;105942;1274;111403;-66
2022/07/25 10:52:41;;;;;;;7.40;3.40;;;;;;;32.54;26.75;98993.17;105959;1274;95667;-68
2022/07/25 10:55:09;;;;;;;5.80;3.20;;;;;;;32.23;26.64;98994.58;105953;1274;106747;-68
2022/07/25 10:57:37;;;;;;;8.40;3.70;;;;;;;32.02;26.84;98989.23;105908;1274;97893;-67
2022/07/25 11:00:21;;;;;;;16.80;5.00;;;;;;;31.67;26.92;98985.98;105931;1275;97931;-68
2022/07/25 11:02:50;;;;;;;17.60;6.90;;;;;;;31.28;27.05;98987.16;105936;1274;112008;-66
2022/07/25 11:05:18;;;;;;;10.80;4.10;;;;;;;31.08;27.19;98984.10;106002;1274;95726;-65
2022/07/25 11:07:53;;;;;;;10.00;4.00;;;;;;;30.96;27.38;98982.25;105973;1274;108460;-68
2022/07/25 11:10:51;;;;;;;11.30;4.00;;;;;;;30.83;27.63;98976.81;105911;1274;96300;-66
2022/07/25 11:13:19;;;;;;;8.90;4.00;;;;;;;30.69;27.53;98971.67;105983;1274;95372;-65
2022/07/25 11:15:48;;;;;;;8.10;3.90;;;;;;;30.60;27.76;98970.25;105960;1274;111986;-68
2022/07/25 11:18:17;;;;;;;7.50;3.80;;;;;;;30.53;27.93;98972.34;105980;1274;98385;-66
2022/07/25 11:20:45;;;;;;;10.90;3.90;;;;;;;30.47;28.07;98966.30;105992;1274;108348;-68
2022/07/25 11:23:20;;;;;;;16.10;4.50;;;;;;;30.39;28.11;98958.24;106002;1274;95265;-65
2022/07/25 11:25:50;;;;;;;7.70;4.20;;;;;;;30.21;28.04;98956.27;106057;1274;97983;-67
2022/07/25 11:28:18;;;;;;;12.70;4.50;;;;;;;29.99;28.18;98956.94;105969;1274;112809;-66
2022/07/25 11:30:46;;;;;;;9.70;4.50;;;;;;;29.92;28.47;98957.11;106021;1274;95663;-66
2022/07/25 11:33:15;;;;;;;11.60;4.80;;;;;;;29.84;28.39;98950.41;105914;1274;107341;-66